<?xml version="1.0" encoding="UTF-8" standalone="no" ?>
<gpx xmlns="http://www.topografix.com/GPX/1/1" xmlns:xsi="http://www.w3.org/2001/XMLSchema-instance" xsi:schemaLocation="http://www.topografix.com/GPX/1/1 http://www.topografix.com/GPX/1/1/gpx.xsd" version="1.1" creator="VisuGPX - https://www.visugpx.com">
  <metadata>
    <name>5352962-SENTEIN 3</name>
    <desc><![CDATA[Sentein N3]]></desc>
  </metadata>
  <trk>
    <name><![CDATA[5352962-SENTEIN 3]]></name>
    <trkseg>
      <trkpt lat="42.87401" lon="0.95524">
        <ele>737</ele>
        <time>2021-10-12T06:35:18Z</time>
      </trkpt>
      <trkpt lat="42.87432" lon="0.95466">
        <ele>737</ele>
        <time>2021-10-12T06:36:28Z</time>
      </trkpt>
      <trkpt lat="42.87462" lon="0.95427">
        <ele>738</ele>
        <time>2021-10-12T06:37:23Z</time>
      </trkpt>
      <trkpt lat="42.87475" lon="0.95392">
        <ele>740</ele>
        <time>2021-10-12T06:38:02Z</time>
      </trkpt>
      <trkpt lat="42.87502" lon="0.95364">
        <ele>742</ele>
        <time>2021-10-12T06:38:47Z</time>
      </trkpt>
      <trkpt lat="42.87519" lon="0.95315">
        <ele>749</ele>
        <time>2021-10-12T06:39:40Z</time>
      </trkpt>
      <trkpt lat="42.87564" lon="0.9531">
        <ele>760</ele>
        <time>2021-10-12T06:40:40Z</time>
      </trkpt>
      <trkpt lat="42.87562" lon="0.95217">
        <ele>760</ele>
        <time>2021-10-12T06:42:11Z</time>
      </trkpt>
      <trkpt lat="42.87591" lon="0.95149">
        <ele>762</ele>
        <time>2021-10-12T06:43:28Z</time>
      </trkpt>
      <trkpt lat="42.8766" lon="0.95014">
        <ele>773</ele>
        <time>2021-10-12T06:46:09Z</time>
      </trkpt>
      <trkpt lat="42.87714" lon="0.94987">
        <ele>782</ele>
        <time>2021-10-12T06:47:26Z</time>
      </trkpt>
      <trkpt lat="42.8773" lon="0.94955">
        <ele>785</ele>
        <time>2021-10-12T06:48:04Z</time>
      </trkpt>
      <trkpt lat="42.87745" lon="0.94911">
        <ele>789</ele>
        <time>2021-10-12T06:48:51Z</time>
      </trkpt>
      <trkpt lat="42.87742" lon="0.94854">
        <ele>801</ele>
        <time>2021-10-12T06:49:47Z</time>
      </trkpt>
      <trkpt lat="42.87778" lon="0.94827">
        <ele>812</ele>
        <time>2021-10-12T06:50:42Z</time>
      </trkpt>
      <trkpt lat="42.87791" lon="0.94737">
        <ele>828</ele>
        <time>2021-10-12T06:52:12Z</time>
      </trkpt>
      <trkpt lat="42.87903" lon="0.94694">
        <ele>854</ele>
        <time>2021-10-12T06:54:47Z</time>
      </trkpt>
      <trkpt lat="42.87997" lon="0.94618">
        <ele>874</ele>
        <time>2021-10-12T06:57:13Z</time>
      </trkpt>
      <trkpt lat="42.88044" lon="0.94614">
        <ele>884</ele>
        <time>2021-10-12T06:58:16Z</time>
      </trkpt>
      <trkpt lat="42.88125" lon="0.94546">
        <ele>904</ele>
        <time>2021-10-12T07:00:23Z</time>
      </trkpt>
      <trkpt lat="42.88177" lon="0.94474">
        <ele>917</ele>
        <time>2021-10-12T07:02:01Z</time>
      </trkpt>
      <trkpt lat="42.88174" lon="0.94414">
        <ele>922</ele>
        <time>2021-10-12T07:03:00Z</time>
      </trkpt>
      <trkpt lat="42.88131" lon="0.94358">
        <ele>920</ele>
        <time>2021-10-12T07:04:20Z</time>
      </trkpt>
      <trkpt lat="42.8815" lon="0.9432">
        <ele>928</ele>
        <time>2021-10-12T07:05:05Z</time>
      </trkpt>
      <trkpt lat="42.88217" lon="0.94295">
        <ele>943</ele>
        <time>2021-10-12T07:06:37Z</time>
      </trkpt>
      <trkpt lat="42.88306" lon="0.94263">
        <ele>968</ele>
        <time>2021-10-12T07:08:40Z</time>
      </trkpt>
      <trkpt lat="42.88354" lon="0.94247">
        <ele>983</ele>
        <time>2021-10-12T07:09:46Z</time>
      </trkpt>
      <trkpt lat="42.88517" lon="0.94221">
        <ele>1033</ele>
        <time>2021-10-12T07:13:25Z</time>
      </trkpt>
      <trkpt lat="42.88575" lon="0.94171">
        <ele>1049</ele>
        <time>2021-10-12T07:14:57Z</time>
      </trkpt>
      <trkpt lat="42.88592" lon="0.94109">
        <ele>1057</ele>
        <time>2021-10-12T07:16:01Z</time>
      </trkpt>
      <trkpt lat="42.88633" lon="0.94053">
        <ele>1079</ele>
        <time>2021-10-12T07:17:19Z</time>
      </trkpt>
      <trkpt lat="42.8863" lon="0.93927">
        <ele>1087</ele>
        <time>2021-10-12T07:19:22Z</time>
      </trkpt>
      <trkpt lat="42.88652" lon="0.93819">
        <ele>1097</ele>
        <time>2021-10-12T07:21:12Z</time>
      </trkpt>
      <trkpt lat="42.8869" lon="0.93664">
        <ele>1112</ele>
        <time>2021-10-12T07:23:51Z</time>
      </trkpt>
      <trkpt lat="42.88627" lon="0.93617">
        <ele>1104</ele>
        <time>2021-10-12T07:25:27Z</time>
      </trkpt>
      <trkpt lat="42.88623" lon="0.93582">
        <ele>1112</ele>
        <time>2021-10-12T07:26:02Z</time>
      </trkpt>
      <trkpt lat="42.88681" lon="0.93461">
        <ele>1136</ele>
        <time>2021-10-12T07:28:23Z</time>
      </trkpt>
      <trkpt lat="42.88729" lon="0.93376">
        <ele>1153</ele>
        <time>2021-10-12T07:30:08Z</time>
      </trkpt>
      <trkpt lat="42.88711" lon="0.93337">
        <ele>1146</ele>
        <time>2021-10-12T07:30:53Z</time>
      </trkpt>
      <trkpt lat="42.88789" lon="0.93217">
        <ele>1173</ele>
        <time>2021-10-12T07:33:30Z</time>
      </trkpt>
      <trkpt lat="42.8888" lon="0.93079">
        <ele>1193</ele>
        <time>2021-10-12T07:36:32Z</time>
      </trkpt>
      <trkpt lat="42.88907" lon="0.92988">
        <ele>1203</ele>
        <time>2021-10-12T07:38:08Z</time>
      </trkpt>
      <trkpt lat="42.88993" lon="0.92817">
        <ele>1232</ele>
        <time>2021-10-12T07:41:30Z</time>
      </trkpt>
      <trkpt lat="42.88983" lon="0.92751">
        <ele>1231</ele>
        <time>2021-10-12T07:42:36Z</time>
      </trkpt>
      <trkpt lat="42.89044" lon="0.92525">
        <ele>1242</ele>
        <time>2021-10-12T07:46:32Z</time>
      </trkpt>
      <trkpt lat="42.89014" lon="0.92435">
        <ele>1236</ele>
        <time>2021-10-12T07:48:08Z</time>
      </trkpt>
      <trkpt lat="42.8894" lon="0.92338">
        <ele>1220</ele>
        <time>2021-10-12T07:50:25Z</time>
      </trkpt>
      <trkpt lat="42.88918" lon="0.92261">
        <ele>1225</ele>
        <time>2021-10-12T07:51:46Z</time>
      </trkpt>
      <trkpt lat="42.88892" lon="0.92153">
        <ele>1226</ele>
        <time>2021-10-12T07:53:37Z</time>
      </trkpt>
      <trkpt lat="42.88922" lon="0.92073">
        <ele>1243</ele>
        <time>2021-10-12T07:55:05Z</time>
      </trkpt>
      <trkpt lat="42.88847" lon="0.91957">
        <ele>1254</ele>
        <time>2021-10-12T07:57:36Z</time>
      </trkpt>
      <trkpt lat="42.88812" lon="0.91873">
        <ele>1268</ele>
        <time>2021-10-12T07:59:11Z</time>
      </trkpt>
      <trkpt lat="42.88787" lon="0.91823">
        <ele>1274</ele>
        <time>2021-10-12T08:00:10Z</time>
      </trkpt>
      <trkpt lat="42.8866" lon="0.91736">
        <ele>1270</ele>
        <time>2021-10-12T08:03:20Z</time>
      </trkpt>
      <trkpt lat="42.88635" lon="0.91629">
        <ele>1283</ele>
        <time>2021-10-12T08:05:09Z</time>
      </trkpt>
      <trkpt lat="42.88635" lon="0.91472">
        <ele>1294</ele>
        <time>2021-10-12T08:07:43Z</time>
      </trkpt>
      <trkpt lat="42.88349" lon="0.91294">
        <ele>1370</ele>
        <time>2021-10-12T08:14:42Z</time>
      </trkpt>
      <trkpt lat="42.88317" lon="0.91359">
        <ele>1369</ele>
        <time>2021-10-12T08:15:59Z</time>
      </trkpt>
      <trkpt lat="42.88252" lon="0.91442">
        <ele>1359</ele>
        <time>2021-10-12T08:17:58Z</time>
      </trkpt>
      <trkpt lat="42.8818" lon="0.91446">
        <ele>1376</ele>
        <time>2021-10-12T08:19:34Z</time>
      </trkpt>
      <trkpt lat="42.87976" lon="0.91669">
        <ele>1344</ele>
        <time>2021-10-12T08:25:23Z</time>
      </trkpt>
      <trkpt lat="42.87906" lon="0.91638">
        <ele>1366</ele>
        <time>2021-10-12T08:27:01Z</time>
      </trkpt>
      <trkpt lat="42.87864" lon="0.91659">
        <ele>1364</ele>
        <time>2021-10-12T08:28:01Z</time>
      </trkpt>
      <trkpt lat="42.87771" lon="0.91726">
        <ele>1358</ele>
        <time>2021-10-12T08:30:21Z</time>
      </trkpt>
      <trkpt lat="42.87674" lon="0.91872">
        <ele>1346</ele>
        <time>2021-10-12T08:33:34Z</time>
      </trkpt>
      <trkpt lat="42.8765" lon="0.91996">
        <ele>1329</ele>
        <time>2021-10-12T08:35:39Z</time>
      </trkpt>
      <trkpt lat="42.87592" lon="0.9213">
        <ele>1318</ele>
        <time>2021-10-12T08:38:11Z</time>
      </trkpt>
      <trkpt lat="42.87512" lon="0.92279">
        <ele>1304</ele>
        <time>2021-10-12T08:41:12Z</time>
      </trkpt>
      <trkpt lat="42.87456" lon="0.92323">
        <ele>1289</ele>
        <time>2021-10-12T08:42:38Z</time>
      </trkpt>
      <trkpt lat="42.87391" lon="0.92443">
        <ele>1275</ele>
        <time>2021-10-12T08:45:04Z</time>
      </trkpt>
      <trkpt lat="42.87377" lon="0.92621">
        <ele>1260</ele>
        <time>2021-10-12T08:47:59Z</time>
      </trkpt>
      <trkpt lat="42.87395" lon="0.92758">
        <ele>1229</ele>
        <time>2021-10-12T08:50:15Z</time>
      </trkpt>
      <trkpt lat="42.87378" lon="0.92856">
        <ele>1196</ele>
        <time>2021-10-12T08:51:54Z</time>
      </trkpt>
      <trkpt lat="42.87327" lon="0.93062">
        <ele>1176</ele>
        <time>2021-10-12T08:55:26Z</time>
      </trkpt>
      <trkpt lat="42.87336" lon="0.93214">
        <ele>1161</ele>
        <time>2021-10-12T08:57:56Z</time>
      </trkpt>
      <trkpt lat="42.87354" lon="0.93425">
        <ele>1121</ele>
        <time>2021-10-12T09:01:23Z</time>
      </trkpt>
      <trkpt lat="42.87352" lon="0.93605">
        <ele>1084</ele>
        <time>2021-10-12T09:04:19Z</time>
      </trkpt>
      <trkpt lat="42.87348" lon="0.93739">
        <ele>1073</ele>
        <time>2021-10-12T09:06:31Z</time>
      </trkpt>
      <trkpt lat="42.87278" lon="0.93941">
        <ele>1064</ele>
        <time>2021-10-12T09:10:09Z</time>
      </trkpt>
      <trkpt lat="42.87329" lon="0.94182">
        <ele>1014</ele>
        <time>2021-10-12T09:14:14Z</time>
      </trkpt>
      <trkpt lat="42.87336" lon="0.94524">
        <ele>951</ele>
        <time>2021-10-12T09:19:49Z</time>
      </trkpt>
      <trkpt lat="42.87362" lon="0.94963">
        <ele>829</ele>
        <time>2021-10-12T09:27:00Z</time>
      </trkpt>
      <trkpt lat="42.8741" lon="0.95105">
        <ele>797</ele>
        <time>2021-10-12T09:29:33Z</time>
      </trkpt>
      <trkpt lat="42.87363" lon="0.95114">
        <ele>789</ele>
        <time>2021-10-12T09:30:36Z</time>
      </trkpt>
      <trkpt lat="42.87427" lon="0.95195">
        <ele>772</ele>
        <time>2021-10-12T09:32:33Z</time>
      </trkpt>
      <trkpt lat="42.87435" lon="0.95311">
        <ele>746</ele>
        <time>2021-10-12T09:34:26Z</time>
      </trkpt>
      <trkpt lat="42.87476" lon="0.95337">
        <ele>743</ele>
        <time>2021-10-12T09:35:27Z</time>
      </trkpt>
      <trkpt lat="42.87471" lon="0.95397">
        <ele>739</ele>
        <time>2021-10-12T09:36:26Z</time>
      </trkpt>
      <trkpt lat="42.87399" lon="0.95519">
        <ele>737</ele>
        <time>2021-10-12T09:38:59Z</time>
      </trkpt>
    </trkseg>
  </trk>
</gpx>